Time,TemperatureF,DewpointF,PressureIn,WindDirection,WindDirectionDegrees,WindSpeedMPH,WindSpeedGustMPH,Humidity,HourlyPrecipIn,Conditions,Clouds,dailyrainin,SoftwareType,DateUTC
2013-05-14 00:00:00,69.4,47.7,29.69,WNW,293,2.0,2.0,46,0.00,,,0.00,Wunderground v.1.15,2013-05-14 05:00:00,
2013-05-14 00:05:00,69.0,47.4,29.69,NW,306,1.0,2.0,46,0.00,,,0.00,Wunderground v.1.15,2013-05-14 05:05:00,
2013-05-14 00:10:00,68.7,47.1,29.69,WNW,303,1.0,1.0,46,0.00,,,0.00,Wunderground v.1.15,2013-05-14 05:10:00,
2013-05-14 00:20:00,68.3,46.7,29.69,WNW,283,1.0,1.0,46,0.00,,,0.00,Wunderground v.1.15,2013-05-14 05:20:00,
2013-05-14 00:30:00,67.6,46.6,29.70,WNW,300,1.0,2.0,47,0.00,,,0.00,Wunderground v.1.15,2013-05-14 05:30:00,
2013-05-14 00:40:00,67.0,46.1,29.70,NW,304,2.0,2.0,47,0.00,,,0.00,Wunderground v.1.15,2013-05-14 05:40:00,
2013-05-14 00:45:00,66.9,46.0,29.70,NW,304,1.0,2.0,47,0.00,,,0.00,Wunderground v.1.15,2013-05-14 05:45:00,
2013-05-14 00:55:00,66.6,45.7,29.70,WNW,299,1.0,1.0,47,0.00,,,0.00,Wunderground v.1.15,2013-05-14 05:55:00,
2013-05-14 01:05:00,66.2,45.9,29.70,NW,305,1.0,2.0,48,0.00,,,0.00,Wunderground v.1.15,2013-05-14 06:05:00,
2013-05-14 01:15:00,65.8,45.6,29.70,WNW,298,1.0,2.0,48,0.00,,,0.00,Wunderground v.1.15,2013-05-14 06:15:00,
2013-05-14 01:20:00,65.7,45.5,29.70,WNW,297,1.0,1.0,48,0.00,,,0.00,Wunderground v.1.15,2013-05-14 06:20:00,
2013-05-14 01:30:00,64.9,45.8,29.70,WNW,297,1.0,1.0,50,0.00,,,0.00,Wunderground v.1.15,2013-05-14 06:30:00,
2013-05-14 01:40:00,64.3,45.3,29.70,WNW,292,2.0,2.0,50,0.00,,,0.00,Wunderground v.1.15,2013-05-14 06:40:00,
2013-05-14 01:45:00,64.0,45.5,29.70,WNW,292,1.0,2.0,51,0.00,,,0.00,Wunderground v.1.15,2013-05-14 06:45:00,
2013-05-14 01:55:00,63.6,45.1,29.70,WNW,292,0.0,1.0,51,0.00,,,0.00,Wunderground v.1.15,2013-05-14 06:55:00,
2013-05-14 02:05:00,63.3,44.9,29.70,WNW,292,0.0,0.0,51,0.00,,,0.00,Wunderground v.1.15,2013-05-14 07:05:00,
2013-05-14 02:15:00,63.2,44.8,29.70,WNW,292,0.0,0.0,51,0.00,,,0.00,Wunderground v.1.15,2013-05-14 07:15:00,
2013-05-14 02:25:00,62.9,44.5,29.71,WNW,292,0.0,0.0,51,0.00,,,0.00,Wunderground v.1.15,2013-05-14 07:25:00,
2013-05-14 02:35:00,62.7,44.3,29.71,WNW,292,0.0,1.0,51,0.00,,,0.00,Wunderground v.1.15,2013-05-14 07:35:00,
2013-05-14 02:45:00,62.2,44.3,29.71,WNW,292,0.0,0.0,52,0.00,,,0.00,Wunderground v.1.15,2013-05-14 07:45:00,
2013-05-14 02:55:00,61.2,44.4,29.70,WNW,292,0.0,0.0,54,0.00,,,0.00,Wunderground v.1.15,2013-05-14 07:55:00,
2013-05-14 03:05:00,60.4,44.2,29.70,WNW,292,0.0,0.0,55,0.00,,,0.00,Wunderground v.1.15,2013-05-14 08:05:00,
2013-05-14 03:15:00,59.6,43.9,29.70,WNW,292,0.0,0.0,56,0.00,,,0.00,Wunderground v.1.15,2013-05-14 08:15:00,
2013-05-14 03:25:00,58.9,43.7,29.70,WNW,292,0.0,0.0,57,0.00,,,0.00,Wunderground v.1.15,2013-05-14 08:25:00,
2013-05-14 03:35:00,58.4,43.7,29.70,WNW,292,0.0,0.0,58,0.00,,,0.00,Wunderground v.1.15,2013-05-14 08:35:00,
2013-05-14 03:45:00,57.6,44.2,29.70,WNW,292,0.0,0.0,61,0.00,,,0.00,Wunderground v.1.15,2013-05-14 08:45:00,
2013-05-14 03:50:00,57.3,44.4,29.70,WNW,292,0.0,0.0,62,0.00,,,0.00,Wunderground v.1.15,2013-05-14 08:50:00,
2013-05-14 03:55:00,57.3,44.4,29.70,WNW,292,0.0,0.0,62,0.00,,,0.00,Wunderground v.1.15,2013-05-14 08:55:00,
2013-05-14 04:05:00,56.9,43.6,29.70,WNW,292,0.0,0.0,61,0.00,,,0.00,Wunderground v.1.15,2013-05-14 09:05:00,
2013-05-14 04:15:00,56.7,43.4,29.69,WNW,292,0.0,0.0,61,0.00,,,0.00,Wunderground v.1.15,2013-05-14 09:15:00,
2013-05-14 04:25:00,55.9,43.9,29.69,West,278,1.0,1.0,64,0.00,,,0.00,Wunderground v.1.15,2013-05-14 09:25:00,
2013-05-14 04:30:00,55.6,43.6,29.69,West,278,1.0,1.0,64,0.00,,,0.00,Wunderground v.1.15,2013-05-14 09:30:00,
2013-05-14 04:40:00,55.3,43.7,29.68,West,278,0.0,0.0,65,0.00,,,0.00,Wunderground v.1.15,2013-05-14 09:40:00,
2013-05-14 04:50:00,55.3,43.7,29.69,West,278,0.0,0.0,65,0.00,,,0.00,Wunderground v.1.15,2013-05-14 09:50:00,
2013-05-14 05:00:00,55.4,43.8,29.69,West,278,0.0,0.0,65,0.00,,,0.00,Wunderground v.1.15,2013-05-14 10:00:00,
2013-05-14 05:05:00,55.2,43.6,29.69,West,278,0.0,0.0,65,0.00,,,0.00,Wunderground v.1.15,2013-05-14 10:05:00,
2013-05-14 05:15:00,54.8,43.7,29.69,WSW,251,1.0,2.0,66,0.00,,,0.00,Wunderground v.1.15,2013-05-14 10:15:00,
2013-05-14 05:20:00,54.4,43.3,29.69,WSW,238,1.0,2.0,66,0.00,,,0.00,Wunderground v.1.15,2013-05-14 10:20:00,
2013-05-14 05:30:00,53.4,43.1,29.69,SSW,203,1.0,2.0,68,0.00,,,0.00,Wunderground v.1.15,2013-05-14 10:30:00,
2013-05-14 05:35:00,53.4,43.1,29.69,SSW,197,1.0,2.0,68,0.00,,,0.00,Wunderground v.1.15,2013-05-14 10:35:00,
2013-05-14 05:45:00,54.0,43.3,29.69,SSW,195,1.0,3.0,67,0.00,,,0.00,Wunderground v.1.15,2013-05-14 10:45:00,
2013-05-14 05:55:00,54.1,43.0,29.68,SSW,195,0.0,1.0,66,0.00,,,0.00,Wunderground v.1.15,2013-05-14 10:55:00,
2013-05-14 06:05:00,54.6,43.1,29.68,SSW,195,0.0,0.0,65,0.00,,,0.00,Wunderground v.1.15,2013-05-14 11:05:00,
2013-05-14 06:15:00,54.5,43.4,29.67,SSW,195,0.0,0.0,66,0.00,,,0.00,Wunderground v.1.15,2013-05-14 11:15:00,
2013-05-14 06:25:00,54.6,43.5,29.67,SSW,194,0.0,0.0,66,0.00,,,0.00,Wunderground v.1.15,2013-05-14 11:25:00,
2013-05-14 06:35:00,54.5,43.8,29.67,SSW,194,0.0,1.0,67,0.00,,,0.00,Wunderground v.1.15,2013-05-14 11:35:00,
2013-05-14 06:45:00,55.6,44.8,29.67,SSW,194,0.0,0.0,67,0.00,,,0.00,Wunderground v.1.15,2013-05-14 11:45:00,
2013-05-14 06:55:00,56.5,45.3,29.67,SSW,194,0.0,2.0,66,0.00,,,0.00,Wunderground v.1.15,2013-05-14 11:55:00,
2013-05-14 07:05:00,57.1,45.8,29.68,SSW,197,2.0,5.0,66,0.00,,,0.00,Wunderground v.1.15,2013-05-14 12:05:00,
2013-05-14 07:15:00,57.6,45.5,29.69,SSW,192,4.0,4.0,64,0.00,,,0.00,Wunderground v.1.15,2013-05-14 12:15:00,
2013-05-14 07:20:00,58.0,45.9,29.69,SSW,192,2.0,2.0,64,0.00,,,0.00,Wunderground v.1.15,2013-05-14 12:20:00,
2013-05-14 07:30:00,59.3,47.1,29.68,SSW,193,1.0,2.0,64,0.00,,,0.00,Wunderground v.1.15,2013-05-14 12:30:00,
2013-05-14 07:40:00,60.8,49.0,29.67,South,190,1.0,1.0,65,0.00,,,0.00,Wunderground v.1.15,2013-05-14 12:40:00,
2013-05-14 07:50:00,62.8,49.6,29.66,South,179,1.0,1.0,62,0.00,,,0.00,Wunderground v.1.15,2013-05-14 12:50:00,
2013-05-14 08:00:00,64.9,49.8,29.65,SSW,197,1.0,2.0,58,0.00,,,0.00,Wunderground v.1.15,2013-05-14 13:00:00,
2013-05-14 08:05:00,65.3,50.1,29.66,South,175,1.0,2.0,58,0.00,,,0.00,Wunderground v.1.15,2013-05-14 13:05:00,
2013-05-14 08:15:00,66.5,50.3,29.66,South,182,1.0,1.0,56,0.00,,,0.00,Wunderground v.1.15,2013-05-14 13:15:00,
2013-05-14 08:20:00,67.1,49.9,29.66,SSE,165,2.0,3.0,54,0.00,,,0.00,Wunderground v.1.15,2013-05-14 13:20:00,
2013-05-14 08:30:00,69.8,49.2,29.65,South,179,5.0,5.0,48,0.00,,,0.00,Wunderground v.1.15,2013-05-14 13:30:00,
2013-05-14 08:40:00,72.1,50.8,29.64,South,178,3.0,3.0,47,0.00,,,0.00,Wunderground v.1.15,2013-05-14 13:40:00,
2013-05-14 08:50:00,73.4,50.2,29.64,South,185,4.0,4.0,44,0.00,,,0.00,Wunderground v.1.15,2013-05-14 13:50:00,
2013-05-14 08:55:00,73.8,49.9,29.64,South,189,4.0,10.0,43,0.00,,,0.00,Wunderground v.1.15,2013-05-14 13:55:00,
2013-05-14 09:05:00,74.2,49.6,29.65,SSE,162,4.0,5.0,42,0.00,,,0.00,Wunderground v.1.15,2013-05-14 14:05:00,
2013-05-14 09:15:00,74.2,49.0,29.66,South,188,2.0,6.0,41,0.00,,,0.00,Wunderground v.1.15,2013-05-14 14:15:00,
2013-05-14 09:25:00,74.0,50.1,29.67,South,188,0.0,1.0,43,0.00,,,0.00,Wunderground v.1.15,2013-05-14 14:25:00,
2013-05-14 09:35:00,72.2,53.6,29.67,NE,41,2.0,5.0,52,0.00,,,0.00,Wunderground v.1.15,2013-05-14 14:35:00,
2013-05-14 09:45:00,70.0,51.6,29.66,NE,52,4.0,6.0,52,0.00,,,0.00,Wunderground v.1.15,2013-05-14 14:45:00,
2013-05-14 09:50:00,70.1,52.2,29.65,ENE,77,3.0,3.0,53,0.00,,,0.00,Wunderground v.1.15,2013-05-14 14:50:00,
2013-05-14 10:00:00,71.3,50.6,29.63,SE,139,3.0,5.0,48,0.00,,,0.00,Wunderground v.1.15,2013-05-14 15:00:00,
2013-05-14 10:05:00,72.0,51.8,29.63,ESE,106,4.0,5.0,49,0.00,,,0.00,Wunderground v.1.15,2013-05-14 15:05:00,
2013-05-14 10:15:00,73.8,51.1,29.61,SE,126,4.0,4.0,45,0.00,,,0.00,Wunderground v.1.15,2013-05-14 15:15:00,
2013-05-14 10:20:00,74.4,51.1,29.63,ESE,102,4.0,4.0,44,0.00,,,0.00,Wunderground v.1.15,2013-05-14 15:20:00,
2013-05-14 10:30:00,74.2,53.2,29.63,East,89,2.0,2.0,48,0.00,,,0.00,Wunderground v.1.15,2013-05-14 15:30:00,
2013-05-14 10:40:00,73.7,51.6,29.63,East,84,3.0,6.0,46,0.00,,,0.00,Wunderground v.1.15,2013-05-14 15:40:00,
2013-05-14 10:50:00,73.4,51.9,29.62,NE,42,5.0,7.0,47,0.00,,,0.00,Wunderground v.1.15,2013-05-14 15:50:00,
2013-05-14 11:00:00,73.1,51.7,29.61,East,83,5.0,5.0,47,0.00,,,0.00,Wunderground v.1.15,2013-05-14 16:00:00,
2013-05-14 11:05:00,73.6,50.3,29.60,ESE,118,4.0,5.0,44,0.00,,,0.00,Wunderground v.1.15,2013-05-14 16:05:00,
2013-05-14 11:15:00,74.7,50.1,29.58,ESE,109,7.0,12.0,42,0.00,,,0.00,Wunderground v.1.15,2013-05-14 16:15:00,
2013-05-14 11:25:00,75.4,50.7,29.57,East,95,7.0,7.0,42,0.00,,,0.00,Wunderground v.1.15,2013-05-14 16:25:00,
2013-05-14 11:30:00,75.5,50.1,29.56,NE,56,7.0,7.0,41,0.00,,,0.00,Wunderground v.1.15,2013-05-14 16:30:00,
2013-05-14 11:40:00,77.1,52.2,29.54,ESE,110,8.0,9.0,42,0.00,,,0.00,Wunderground v.1.15,2013-05-14 16:40:00,
2013-05-14 11:45:00,77.9,52.3,29.54,ESE,120,8.0,9.0,41,0.00,,,0.00,Wunderground v.1.15,2013-05-14 16:45:00,
2013-05-14 11:55:00,80.3,51.7,29.53,SE,135,8.0,9.0,37,0.00,,,0.00,Wunderground v.1.15,2013-05-14 16:55:00,
2013-05-14 12:00:00,82.3,51.9,29.52,SSE,149,8.0,8.0,35,0.00,,,0.00,Wunderground v.1.15,2013-05-14 17:00:00,
2013-05-14 12:05:00,83.8,52.4,29.52,SE,137,8.0,11.0,34,0.00,,,0.00,Wunderground v.1.15,2013-05-14 17:05:00,
2013-05-14 12:15:00,84.8,52.5,29.51,SE,133,8.0,12.0,33,0.00,,,0.00,Wunderground v.1.15,2013-05-14 17:15:00,
2013-05-14 12:20:00,85.7,52.4,29.51,SE,136,9.0,9.0,32,0.00,,,0.00,Wunderground v.1.15,2013-05-14 17:20:00,
2013-05-14 12:30:00,88.1,52.8,29.51,South,183,7.0,10.0,30,0.00,,,0.00,Wunderground v.1.15,2013-05-14 17:30:00,
2013-05-14 12:40:00,89.8,53.3,29.51,South,177,7.0,11.0,29,0.00,,,0.00,Wunderground v.1.15,2013-05-14 17:40:00,
2013-05-14 12:50:00,90.6,53.0,29.51,SSE,158,6.0,12.0,28,0.00,,,0.00,Wunderground v.1.15,2013-05-14 17:50:00,
2013-05-14 13:00:00,92.1,55.3,29.51,SSE,164,5.0,5.0,29,0.00,,,0.00,Wunderground v.1.15,2013-05-14 18:00:00,
2013-05-14 13:05:00,92.5,54.7,29.50,SE,129,5.0,7.0,28,0.00,,,0.00,Wunderground v.1.15,2013-05-14 18:05:00,
2013-05-14 13:15:00,93.7,54.7,29.49,SE,141,6.0,6.0,27,0.00,,,0.00,Wunderground v.1.15,2013-05-14 18:15:00,
2013-05-14 13:20:00,93.8,54.8,29.49,SSE,147,5.0,5.0,27,0.00,,,0.00,Wunderground v.1.15,2013-05-14 18:20:00,
2013-05-14 13:30:00,96.0,52.2,29.49,SW,220,8.0,15.0,23,0.00,,,0.00,Wunderground v.1.15,2013-05-14 18:30:00,
2013-05-14 13:40:00,96.8,51.7,29.49,WSW,256,11.0,11.0,22,0.00,,,0.00,Wunderground v.1.15,2013-05-14 18:40:00,
2013-05-14 13:45:00,96.9,51.8,29.48,West,262,9.0,11.0,22,0.00,,,0.00,Wunderground v.1.15,2013-05-14 18:45:00,
2013-05-14 13:55:00,97.1,50.7,29.48,WNW,296,9.0,9.0,21,0.00,,,0.00,Wunderground v.1.15,2013-05-14 18:55:00,
2013-05-14 14:05:00,97.1,51.9,29.48,West,274,9.0,12.0,22,0.00,,,0.00,Wunderground v.1.15,2013-05-14 19:05:00,
2013-05-14 14:15:00,96.2,51.2,29.49,West,263,10.0,23.0,22,0.00,,,0.00,Wunderground v.1.15,2013-05-14 19:15:00,
2013-05-14 14:25:00,95.6,51.9,29.49,West,272,13.0,22.0,23,0.00,,,0.00,Wunderground v.1.15,2013-05-14 19:25:00,
2013-05-14 14:30:00,95.4,51.7,29.49,West,266,11.0,11.0,23,0.00,,,0.00,Wunderground v.1.15,2013-05-14 19:30:00,
2013-05-14 14:40:00,95.0,51.4,29.49,WNW,291,12.0,12.0,23,0.00,,,0.00,Wunderground v.1.15,2013-05-14 19:40:00,
2013-05-14 14:50:00,94.9,51.3,29.49,WNW,290,10.0,10.0,23,0.00,,,0.00,Wunderground v.1.15,2013-05-14 19:50:00,
2013-05-14 15:00:00,95.3,51.6,29.49,NW,311,9.0,9.0,23,0.00,,,0.00,Wunderground v.1.15,2013-05-14 20:00:00,
2013-05-14 15:05:00,95.1,50.3,29.50,WNW,294,10.0,14.0,22,0.00,,,0.00,Wunderground v.1.15,2013-05-14 20:05:00,
2013-05-14 15:15:00,94.9,50.1,29.50,West,280,10.0,11.0,22,0.00,,,0.00,Wunderground v.1.15,2013-05-14 20:15:00,
2013-05-14 15:20:00,95.3,51.6,29.50,WNW,292,8.0,8.0,23,0.00,,,0.00,Wunderground v.1.15,2013-05-14 20:20:00,
2013-05-14 15:30:00,95.2,50.4,29.50,NNW,333,9.0,9.0,22,0.00,,,0.00,Wunderground v.1.15,2013-05-14 20:30:00,
2013-05-14 15:40:00,94.8,50.0,29.50,NW,313,10.0,10.0,22,0.00,,,0.00,Wunderground v.1.15,2013-05-14 20:40:00,
2013-05-14 15:45:00,95.0,48.9,29.50,WNW,293,10.0,10.0,21,0.00,,,0.00,Wunderground v.1.15,2013-05-14 20:45:00,
2013-05-14 15:55:00,95.0,48.9,29.51,NNE,13,10.0,10.0,21,0.00,,,0.00,Wunderground v.1.15,2013-05-14 20:55:00,
2013-05-14 16:05:00,95.2,47.8,29.50,WNW,291,9.0,11.0,20,0.00,,,0.00,Wunderground v.1.15,2013-05-14 21:05:00,
2013-05-14 16:15:00,95.3,45.1,29.51,WNW,303,8.0,14.0,18,0.00,,,0.00,Wunderground v.1.15,2013-05-14 21:15:00,
2013-05-14 16:20:00,95.2,41.9,29.51,WNW,293,11.0,25.0,16,0.00,,,0.00,Wunderground v.1.15,2013-05-14 21:20:00,
2013-05-14 16:30:00,94.8,43.2,29.52,WNW,285,13.0,21.0,17,0.00,,,0.00,Wunderground v.1.15,2013-05-14 21:30:00,
2013-05-14 16:40:00,94.3,42.8,29.52,West,276,13.0,13.0,17,0.00,,,0.00,Wunderground v.1.15,2013-05-14 21:40:00,
2013-05-14 16:50:00,94.2,42.7,29.52,WNW,297,12.0,12.0,17,0.00,,,0.00,Wunderground v.1.15,2013-05-14 21:50:00,
2013-05-14 17:00:00,93.3,42.0,29.53,West,280,13.0,17.0,17,0.00,,,0.00,Wunderground v.1.15,2013-05-14 22:00:00,
2013-05-14 17:05:00,92.8,40.0,29.53,NNW,330,14.0,17.0,16,0.00,,,0.00,Wunderground v.1.15,2013-05-14 22:05:00,
2013-05-14 17:15:00,92.9,40.1,29.53,NW,322,11.0,25.0,16,0.00,,,0.00,Wunderground v.1.15,2013-05-14 22:15:00,
2013-05-14 17:20:00,92.5,38.1,29.53,WNW,296,13.0,19.0,15,0.00,,,0.00,Wunderground v.1.15,2013-05-14 22:20:00,
2013-05-14 17:30:00,92.4,41.3,29.54,NW,304,11.0,11.0,17,0.00,,,0.00,Wunderground v.1.15,2013-05-14 22:30:00,
2013-05-14 17:40:00,92.0,42.4,29.54,West,278,11.0,15.0,18,0.00,,,0.00,Wunderground v.1.15,2013-05-14 22:40:00,
2013-05-14 17:45:00,91.7,42.2,29.54,West,280,12.0,15.0,18,0.00,,,0.00,Wunderground v.1.15,2013-05-14 22:45:00,
2013-05-14 17:55:00,91.1,43.1,29.54,NNW,333,12.0,12.0,19,0.00,,,0.00,Wunderground v.1.15,2013-05-14 22:55:00,
2013-05-14 18:00:00,90.7,41.4,29.54,WNW,291,13.0,13.0,18,0.00,,,0.00,Wunderground v.1.15,2013-05-14 23:00:00,
2013-05-14 18:05:00,90.5,41.2,29.55,WNW,294,13.0,13.0,18,0.00,,,0.00,Wunderground v.1.15,2013-05-14 23:05:00,
2013-05-14 18:15:00,89.4,35.7,29.56,NW,322,14.0,17.0,15,0.00,,,0.00,Wunderground v.1.15,2013-05-14 23:15:00,
2013-05-14 18:20:00,88.9,29.7,29.56,WNW,295,15.0,15.0,12,0.00,,,0.00,Wunderground v.1.15,2013-05-14 23:20:00,
2013-05-14 18:30:00,88.0,36.2,29.56,West,271,10.0,10.0,16,0.00,,,0.00,Wunderground v.1.15,2013-05-14 23:30:00,
2013-05-14 18:40:00,87.2,35.5,29.56,West,278,10.0,15.0,16,0.00,,,0.00,Wunderground v.1.15,2013-05-14 23:40:00,
2013-05-14 18:45:00,86.6,35.1,29.57,WNW,294,12.0,15.0,16,0.00,,,0.00,Wunderground v.1.15,2013-05-14 23:45:00,
2013-05-14 18:55:00,85.7,31.0,29.57,WNW,283,13.0,13.0,14,0.00,,,0.00,Wunderground v.1.15,2013-05-14 23:55:00,
2013-05-14 19:05:00,85.2,32.3,29.57,West,278,11.0,15.0,15,0.00,,,0.00,Wunderground v.1.15,2013-05-15 00:05:00,
2013-05-14 19:15:00,84.8,32.0,29.58,WNW,298,10.0,20.0,15,0.00,,,0.00,Wunderground v.1.15,2013-05-15 00:15:00,
2013-05-14 19:25:00,84.4,31.7,29.58,West,268,10.0,13.0,15,0.00,,,0.00,Wunderground v.1.15,2013-05-15 00:25:00,
2013-05-14 19:35:00,83.6,31.0,29.59,NW,308,10.0,10.0,15,0.00,,,0.00,Wunderground v.1.15,2013-05-15 00:35:00,
2013-05-14 19:40:00,83.2,32.3,29.59,North,4,11.0,11.0,16,0.00,,,0.00,Wunderground v.1.15,2013-05-15 00:40:00,
2013-05-14 19:50:00,82.5,33.3,29.59,West,268,8.0,8.0,17,0.00,,,0.00,Wunderground v.1.15,2013-05-15 00:50:00,
2013-05-14 20:00:00,81.8,34.1,29.59,NNW,347,8.0,8.0,18,0.00,,,0.00,Wunderground v.1.15,2013-05-15 01:00:00,
2013-05-14 20:05:00,81.4,33.8,29.60,WNW,291,7.0,9.0,18,0.00,,,0.00,Wunderground v.1.15,2013-05-15 01:05:00,
2013-05-14 20:15:00,80.5,35.7,29.61,West,276,7.0,7.0,20,0.00,,,0.00,Wunderground v.1.15,2013-05-15 01:15:00,
2013-05-14 20:20:00,80.2,34.2,29.61,WNW,293,7.0,8.0,19,0.00,,,0.00,Wunderground v.1.15,2013-05-15 01:20:00,
2013-05-14 20:30:00,79.4,36.0,29.61,NW,306,7.0,7.0,21,0.00,,,0.00,Wunderground v.1.15,2013-05-15 01:30:00,
2013-05-14 20:35:00,78.9,36.8,29.61,NW,319,8.0,8.0,22,0.00,,,0.00,Wunderground v.1.15,2013-05-15 01:35:00,
2013-05-14 20:45:00,78.1,37.3,29.61,NW,308,7.0,7.0,23,0.00,,,0.00,Wunderground v.1.15,2013-05-15 01:45:00,
2013-05-14 20:55:00,77.5,37.8,29.61,NW,305,7.0,9.0,24,0.00,,,0.00,Wunderground v.1.15,2013-05-15 01:55:00,
2013-05-14 21:00:00,77.1,38.6,29.62,West,274,7.0,7.0,25,0.00,,,0.00,Wunderground v.1.15,2013-05-15 02:00:00,
2013-05-14 21:05:00,76.8,38.3,29.62,NNW,339,7.0,7.0,25,0.00,,,0.00,Wunderground v.1.15,2013-05-15 02:05:00,
2013-05-14 21:15:00,76.4,39.9,29.63,NW,324,7.0,7.0,27,0.00,,,0.00,Wunderground v.1.15,2013-05-15 02:15:00,
2013-05-14 21:20:00,75.9,40.4,29.64,North,349,7.0,7.0,28,0.00,,,0.00,Wunderground v.1.15,2013-05-15 02:20:00,
2013-05-14 21:30:00,75.1,41.5,29.64,NW,325,7.0,7.0,30,0.00,,,0.00,Wunderground v.1.15,2013-05-15 02:30:00,
2013-05-14 21:40:00,74.3,41.7,29.65,WNW,303,6.0,6.0,31,0.00,,,0.00,Wunderground v.1.15,2013-05-15 02:40:00,
2013-05-14 21:45:00,73.9,42.2,29.65,NW,316,5.0,6.0,32,0.00,,,0.00,Wunderground v.1.15,2013-05-15 02:45:00,
2013-05-14 21:50:00,73.4,42.5,29.66,North,354,5.0,8.0,33,0.00,,,0.00,Wunderground v.1.15,2013-05-15 02:50:00,
2013-05-14 22:00:00,72.8,42.8,29.67,NW,324,5.0,6.0,34,0.00,,,0.00,Wunderground v.1.15,2013-05-15 03:00:00,
2013-05-14 22:05:00,72.7,43.5,29.67,NW,318,5.0,10.0,35,0.00,,,0.00,Wunderground v.1.15,2013-05-15 03:05:00,
2013-05-14 22:15:00,72.1,44.4,29.68,NW,323,6.0,8.0,37,0.00,,,0.00,Wunderground v.1.15,2013-05-15 03:15:00,
2013-05-14 22:20:00,71.9,44.9,29.68,NW,309,7.0,7.0,38,0.00,,,0.00,Wunderground v.1.15,2013-05-15 03:20:00,
2013-05-14 22:30:00,71.1,45.5,29.69,North,359,5.0,5.0,40,0.00,,,0.00,Wunderground v.1.15,2013-05-15 03:30:00,
2013-05-14 22:35:00,70.7,46.5,29.69,NNW,344,6.0,10.0,42,0.00,,,0.00,Wunderground v.1.15,2013-05-15 03:35:00,
2013-05-14 22:45:00,70.0,47.1,29.69,NW,304,6.0,7.0,44,0.00,,,0.00,Wunderground v.1.15,2013-05-15 03:45:00,
2013-05-14 22:55:00,69.2,46.9,29.69,North,354,5.0,11.0,45,0.00,,,0.00,Wunderground v.1.15,2013-05-15 03:55:00,
2013-05-14 23:00:00,69.0,46.8,29.70,NNW,343,8.0,8.0,45,0.00,,,0.00,Wunderground v.1.15,2013-05-15 04:00:00,
2013-05-14 23:05:00,68.6,46.4,29.71,NNW,333,9.0,9.0,45,0.00,,,0.00,Wunderground v.1.15,2013-05-15 04:05:00,
2013-05-14 23:10:00,68.2,46.6,29.71,NW,309,8.0,8.0,46,0.00,,,0.00,Wunderground v.1.15,2013-05-15 04:10:00,
2013-05-14 23:20:00,67.2,46.3,29.72,West,280,8.0,9.0,47,0.00,,,0.00,Wunderground v.1.15,2013-05-15 04:20:00,
2013-05-14 23:30:00,66.5,46.2,29.72,NW,310,7.0,7.0,48,0.00,,,0.00,Wunderground v.1.15,2013-05-15 04:30:00,
2013-05-14 23:40:00,65.9,46.2,29.72,NW,305,6.0,9.0,49,0.00,,,0.00,Wunderground v.1.15,2013-05-15 04:40:00,
2013-05-14 23:45:00,65.6,46.5,29.73,WNW,302,5.0,9.0,50,0.00,,,0.00,Wunderground v.1.15,2013-05-15 04:45:00,
2013-05-14 23:55:00,65.1,46.0,29.73,NW,308,5.0,5.0,50,0.00,,,0.00,Wunderground v.1.15,2013-05-15 04:55:00,